sensor_id;sensor_type;location;lat;lon;timestamp;pressure;altitude;pressure_sealevel;temperature;humidity
56671;BME280;42545;50.054;8.306;2022-12-18T00:02:17;101360.75;;;-9.19;100.00
56671;BME280;42545;50.054;8.306;2022-12-18T00:04:44;101358.38;;;-9.17;100.00
56671;BME280;42545;50.054;8.306;2022-12-18T00:07:11;101356.94;;;-9.22;100.00
56671;BME280;42545;50.054;8.306;2022-12-18T00:09:37;101356.56;;;-9.25;100.00
56671;BME280;42545;50.054;8.306;2022-12-18T00:12:05;101356.25;;;-9.29;100.00
56671;BME280;42545;50.054;8.306;2022-12-18T00:14:32;101361.72;;;-9.33;100.00
56671;BME280;42545;50.054;8.306;2022-12-18T00:16:59;101345.28;;;-9.35;100.00
56671;BME280;42545;50.054;8.306;2022-12-18T00:19:27;101350.25;;;-9.36;100.00
56671;BME280;42545;50.054;8.306;2022-12-18T00:21:53;101353.53;;;-9.37;100.00
56671;BME280;42545;50.054;8.306;2022-12-18T00:24:20;101348.41;;;-9.37;100.00
56671;BME280;42545;50.054;8.306;2022-12-18T00:26:47;101343.66;;;-9.34;100.00
56671;BME280;42545;50.054;8.306;2022-12-18T00:29:13;101344.94;;;-9.31;100.00
56671;BME280;42545;50.054;8.306;2022-12-18T00:31:41;101344.38;;;-9.28;100.00
56671;BME280;42545;50.054;8.306;2022-12-18T00:34:09;101344.94;;;-9.31;100.00
56671;BME280;42545;50.054;8.306;2022-12-18T00:36:38;101348.91;;;-9.25;100.00
56671;BME280;42545;50.054;8.306;2022-12-18T00:39:05;101343.78;;;-9.25;100.00
56671;BME280;42545;50.054;8.306;2022-12-18T00:41:32;101345.63;;;-9.24;100.00
56671;BME280;42545;50.054;8.306;2022-12-18T00:44:17;101353.47;;;-9.23;100.00
56671;BME280;42545;50.054;8.306;2022-12-18T00:46:46;101352.03;;;-9.28;100.00
56671;BME280;42545;50.054;8.306;2022-12-18T00:49:14;101350.97;;;-9.37;100.00
56671;BME280;42545;50.054;8.306;2022-12-18T00:51:42;101360.28;;;-9.38;100.00
56671;BME280;42545;50.054;8.306;2022-12-18T00:54:09;101359.56;;;-9.44;100.00
56671;BME280;42545;50.054;8.306;2022-12-18T00:56:36;101355.56;;;-9.49;100.00
56671;BME280;42545;50.054;8.306;2022-12-18T00:59:06;101360.34;;;-9.52;100.00
56671;BME280;42545;50.054;8.306;2022-12-18T01:01:33;101355.25;;;-9.59;100.00
56671;BME280;42545;50.054;8.306;2022-12-18T01:04:03;101362.53;;;-9.62;100.00
56671;BME280;42545;50.054;8.306;2022-12-18T01:06:30;101350.16;;;-9.67;100.00
56671;BME280;42545;50.054;8.306;2022-12-18T01:08:58;101355.81;;;-9.69;100.00
56671;BME280;42545;50.054;8.306;2022-12-18T01:11:25;101356.91;;;-9.74;100.00
56671;BME280;42545;50.054;8.306;2022-12-18T01:13:52;101378.25;;;-9.74;100.00
56671;BME280;42545;50.054;8.306;2022-12-18T01:16:19;101373.72;;;-9.76;100.00
56671;BME280;42545;50.054;8.306;2022-12-18T01:18:46;101373.84;;;-9.75;100.00
56671;BME280;42545;50.054;8.306;2022-12-18T01:21:15;101369.13;;;-9.72;100.00
56671;BME280;42545;50.054;8.306;2022-12-18T01:23:42;101368.59;;;-9.69;100.00
56671;BME280;42545;50.054;8.306;2022-12-18T01:26:16;101376.06;;;-9.71;100.00
56671;BME280;42545;50.054;8.306;2022-12-18T01:28:42;101379.16;;;-9.73;100.00
56671;BME280;42545;50.054;8.306;2022-12-18T01:31:12;101385.03;;;-9.81;100.00
56671;BME280;42545;50.054;8.306;2022-12-18T01:33:38;101395.75;;;-9.84;100.00
56671;BME280;42545;50.054;8.306;2022-12-18T01:36:05;101389.22;;;-9.89;100.00
56671;BME280;42545;50.054;8.306;2022-12-18T01:38:32;101395.44;;;-9.94;100.00
56671;BME280;42545;50.054;8.306;2022-12-18T01:40:59;101395.63;;;-10.00;100.00
56671;BME280;42545;50.054;8.306;2022-12-18T01:43:44;101384.31;;;-10.09;100.00
56671;BME280;42545;50.054;8.306;2022-12-18T01:46:11;101389.22;;;-10.11;100.00
56671;BME280;42545;50.054;8.306;2022-12-18T01:48:38;101393.59;;;-10.17;100.00
56671;BME280;42545;50.054;8.306;2022-12-18T01:51:07;101389.41;;;-10.23;100.00
56671;BME280;42545;50.054;8.306;2022-12-18T01:53:36;101381.00;;;-10.30;100.00
56671;BME280;42545;50.054;8.306;2022-12-18T01:56:04;101379.94;;;-10.32;100.00
56671;BME280;42545;50.054;8.306;2022-12-18T01:58:37;101374.13;;;-10.38;100.00
56671;BME280;42545;50.054;8.306;2022-12-18T02:01:08;101371.38;;;-10.47;100.00
56671;BME280;42545;50.054;8.306;2022-12-18T02:03:35;101381.19;;;-10.50;100.00
56671;BME280;42545;50.054;8.306;2022-12-18T02:06:09;101389.97;;;-10.55;100.00
56671;BME280;42545;50.054;8.306;2022-12-18T02:08:41;101388.69;;;-10.58;100.00
56671;BME280;42545;50.054;8.306;2022-12-18T02:11:15;101388.09;;;-10.63;100.00
56671;BME280;42545;50.054;8.306;2022-12-18T02:13:49;101377.19;;;-10.69;100.00
56671;BME280;42545;50.054;8.306;2022-12-18T02:16:25;101380.63;;;-10.69;100.00
56671;BME280;42545;50.054;8.306;2022-12-18T02:18:57;101378.25;;;-10.67;100.00
56671;BME280;42545;50.054;8.306;2022-12-18T02:21:31;101373.16;;;-10.67;100.00
56671;BME280;42545;50.054;8.306;2022-12-18T02:24:10;101375.91;;;-10.66;100.00
56671;BME280;42545;50.054;8.306;2022-12-18T02:26:45;101373.69;;;-10.70;100.00
56671;BME280;42545;50.054;8.306;2022-12-18T02:29:19;101353.28;;;-10.77;100.00
56671;BME280;42545;50.054;8.306;2022-12-18T02:31:51;101357.44;;;-10.85;100.00
56671;BME280;42545;50.054;8.306;2022-12-18T02:34:19;101340.13;;;-10.94;100.00
56671;BME280;42545;50.054;8.306;2022-12-18T02:36:49;101340.50;;;-10.98;100.00
56671;BME280;42545;50.054;8.306;2022-12-18T02:39:17;101351.59;;;-10.98;100.00
56671;BME280;42545;50.054;8.306;2022-12-18T02:41:47;101360.16;;;-10.97;100.00
56671;BME280;42545;50.054;8.306;2022-12-18T02:44:16;101351.03;;;-11.03;100.00
56671;BME280;42545;50.054;8.306;2022-12-18T02:46:45;101339.72;;;-11.12;100.00
56671;BME280;42545;50.054;8.306;2022-12-18T02:49:24;101346.97;;;-11.22;100.00
56671;BME280;42545;50.054;8.306;2022-12-18T02:51:55;101363.16;;;-11.22;100.00
56671;BME280;42545;50.054;8.306;2022-12-18T02:54:41;101357.50;;;-11.26;100.00
56671;BME280;42545;50.054;8.306;2022-12-18T02:57:20;101368.22;;;-11.29;100.00
56671;BME280;42545;50.054;8.306;2022-12-18T02:59:56;101379.69;;;-11.32;100.00
56671;BME280;42545;50.054;8.306;2022-12-18T03:02:28;101378.56;;;-11.34;100.00
56671;BME280;42545;50.054;8.306;2022-12-18T03:05:01;101373.47;;;-11.34;100.00
56671;BME280;42545;50.054;8.306;2022-12-18T03:07:35;101371.47;;;-11.37;100.00
56671;BME280;42545;50.054;8.306;2022-12-18T03:10:06;101385.63;;;-11.39;100.00
56671;BME280;42545;50.054;8.306;2022-12-18T03:12:40;101374.34;;;-11.41;100.00
56671;BME280;42545;50.054;8.306;2022-12-18T03:15:14;101378.00;;;-11.39;100.00
56671;BME280;42545;50.054;8.306;2022-12-18T03:17:46;101376.56;;;-11.37;100.00
56671;BME280;42545;50.054;8.306;2022-12-18T03:20:19;101373.28;;;-11.36;100.00
56671;BME280;42545;50.054;8.306;2022-12-18T03:22:49;101368.56;;;-11.33;100.00
56671;BME280;42545;50.054;8.306;2022-12-18T03:25:18;101365.28;;;-11.32;100.00
56671;BME280;42545;50.054;8.306;2022-12-18T03:27:49;101364.38;;;-11.32;100.00
56671;BME280;42545;50.054;8.306;2022-12-18T03:30:18;101367.84;;;-11.32;100.00
56671;BME280;42545;50.054;8.306;2022-12-18T03:32:48;101358.59;;;-11.31;100.00
56671;BME280;42545;50.054;8.306;2022-12-18T03:35:22;101352.03;;;-11.29;100.00
56671;BME280;42545;50.054;8.306;2022-12-18T03:37:50;101346.56;;;-11.32;100.00
56671;BME280;42545;50.054;8.306;2022-12-18T03:40:16;101355.09;;;-11.32;100.00
56671;BME280;42545;50.054;8.306;2022-12-18T03:42:48;101347.81;;;-11.36;100.00
56671;BME280;42545;50.054;8.306;2022-12-18T03:45:23;101340.72;;;-11.38;100.00
56671;BME280;42545;50.054;8.306;2022-12-18T03:47:58;101351.41;;;-11.41;100.00
56671;BME280;42545;50.054;8.306;2022-12-18T03:50:34;101351.06;;;-11.44;100.00
56671;BME280;42545;50.054;8.306;2022-12-18T03:53:11;101351.59;;;-11.47;100.00
56671;BME280;42545;50.054;8.306;2022-12-18T03:55:41;101346.69;;;-11.45;100.00
56671;BME280;42545;50.054;8.306;2022-12-18T03:58:15;101353.63;;;-11.44;100.00
56671;BME280;42545;50.054;8.306;2022-12-18T04:00:44;101354.31;;;-11.45;100.00
56671;BME280;42545;50.054;8.306;2022-12-18T04:03:13;101353.06;;;-11.42;100.00
56671;BME280;42545;50.054;8.306;2022-12-18T04:05:41;101342.91;;;-11.34;100.00
56671;BME280;42545;50.054;8.306;2022-12-18T04:08:10;101344.41;;;-11.29;100.00
56671;BME280;42545;50.054;8.306;2022-12-18T04:10:38;101336.19;;;-11.27;100.00
56671;BME280;42545;50.054;8.306;2022-12-18T04:13:04;101339.34;;;-11.22;100.00
56671;BME280;42545;50.054;8.306;2022-12-18T04:15:34;101333.72;;;-11.12;100.00
56671;BME280;42545;50.054;8.306;2022-12-18T04:18:02;101334.84;;;-10.96;100.00
56671;BME280;42545;50.054;8.306;2022-12-18T04:20:29;101333.63;;;-10.78;100.00
56671;BME280;42545;50.054;8.306;2022-12-18T04:22:57;101334.56;;;-10.56;100.00
56671;BME280;42545;50.054;8.306;2022-12-18T04:25:25;101332.72;;;-10.35;100.00
56671;BME280;42545;50.054;8.306;2022-12-18T04:27:52;101327.97;;;-10.18;100.00
56671;BME280;42545;50.054;8.306;2022-12-18T04:30:18;101335.44;;;-9.98;100.00
56671;BME280;42545;50.054;8.306;2022-12-18T04:32:47;101331.22;;;-9.83;100.00
56671;BME280;42545;50.054;8.306;2022-12-18T04:35:13;101329.34;;;-9.70;100.00
56671;BME280;42545;50.054;8.306;2022-12-18T04:37:40;101320.16;;;-9.53;100.00
56671;BME280;42545;50.054;8.306;2022-12-18T04:40:08;101316.09;;;-9.37;100.00
56671;BME280;42545;50.054;8.306;2022-12-18T04:42:35;101326.41;;;-9.14;100.00
56671;BME280;42545;50.054;8.306;2022-12-18T04:45:03;101311.31;;;-8.96;100.00
56671;BME280;42545;50.054;8.306;2022-12-18T04:47:30;101316.53;;;-8.80;100.00
56671;BME280;42545;50.054;8.306;2022-12-18T04:49:58;101323.03;;;-8.68;100.00
56671;BME280;42545;50.054;8.306;2022-12-18T04:52:25;101325.91;;;-8.58;100.00
56671;BME280;42545;50.054;8.306;2022-12-18T04:54:51;101330.41;;;-8.48;100.00
56671;BME280;42545;50.054;8.306;2022-12-18T04:57:18;101333.75;;;-8.40;100.00
56671;BME280;42545;50.054;8.306;2022-12-18T04:59:45;101341.41;;;-8.33;100.00
56671;BME280;42545;50.054;8.306;2022-12-18T05:02:12;101329.38;;;-8.18;100.00
56671;BME280;42545;50.054;8.306;2022-12-18T05:04:39;101325.22;;;-8.02;100.00
56671;BME280;42545;50.054;8.306;2022-12-18T05:07:07;101324.59;;;-7.92;100.00
56671;BME280;42545;50.054;8.306;2022-12-18T05:09:34;101326.16;;;-7.85;100.00
56671;BME280;42545;50.054;8.306;2022-12-18T05:12:00;101328.97;;;-7.75;100.00
56671;BME280;42545;50.054;8.306;2022-12-18T05:14:27;101332.97;;;-7.70;100.00
56671;BME280;42545;50.054;8.306;2022-12-18T05:16:57;101316.50;;;-7.72;100.00
56671;BME280;42545;50.054;8.306;2022-12-18T05:19:23;101330.06;;;-7.57;100.00
56671;BME280;42545;50.054;8.306;2022-12-18T05:21:50;101333.63;;;-7.48;100.00
56671;BME280;42545;50.054;8.306;2022-12-18T05:24:19;101333.56;;;-7.41;100.00
56671;BME280;42545;50.054;8.306;2022-12-18T05:26:45;101331.81;;;-7.33;100.00
56671;BME280;42545;50.054;8.306;2022-12-18T05:29:12;101331.03;;;-7.32;100.00
56671;BME280;42545;50.054;8.306;2022-12-18T05:31:40;101329.97;;;-7.34;100.00
56671;BME280;42545;50.054;8.306;2022-12-18T05:34:06;101332.97;;;-7.38;100.00
56671;BME280;42545;50.054;8.306;2022-12-18T05:36:33;101329.16;;;-7.42;100.00
56671;BME280;42545;50.054;8.306;2022-12-18T05:38:59;101324.44;;;-7.46;100.00
56671;BME280;42545;50.054;8.306;2022-12-18T05:41:28;101319.31;;;-7.46;100.00
56671;BME280;42545;50.054;8.306;2022-12-18T05:43:55;101331.63;;;-7.50;100.00
56671;BME280;42545;50.054;8.306;2022-12-18T05:46:27;101332.94;;;-7.54;100.00
56671;BME280;42545;50.054;8.306;2022-12-18T05:48:54;101321.63;;;-7.56;100.00
56671;BME280;42545;50.054;8.306;2022-12-18T05:51:22;101317.00;;;-7.51;100.00
56671;BME280;42545;50.054;8.306;2022-12-18T05:53:49;101321.53;;;-7.49;100.00
56671;BME280;42545;50.054;8.306;2022-12-18T05:56:18;101305.44;;;-7.48;100.00
56671;BME280;42545;50.054;8.306;2022-12-18T05:58:51;101313.78;;;-7.42;100.00
56671;BME280;42545;50.054;8.306;2022-12-18T06:01:20;101318.16;;;-7.41;100.00
56671;BME280;42545;50.054;8.306;2022-12-18T06:03:47;101312.28;;;-7.40;100.00
56671;BME280;42545;50.054;8.306;2022-12-18T06:06:17;101326.34;;;-7.36;100.00
56671;BME280;42545;50.054;8.306;2022-12-18T06:08:44;101329.66;;;-7.37;100.00
56671;BME280;42545;50.054;8.306;2022-12-18T06:11:11;101334.63;;;-7.39;100.00
56671;BME280;42545;50.054;8.306;2022-12-18T06:13:40;101336.28;;;-7.39;100.00
56671;BME280;42545;50.054;8.306;2022-12-18T06:16:08;101343.81;;;-7.41;100.00
56671;BME280;42545;50.054;8.306;2022-12-18T06:18:34;101344.19;;;-7.45;100.00
56671;BME280;42545;50.054;8.306;2022-12-18T06:21:04;101343.63;;;-7.42;100.00
56671;BME280;42545;50.054;8.306;2022-12-18T06:23:31;101349.31;;;-7.45;100.00
56671;BME280;42545;50.054;8.306;2022-12-18T06:25:58;101350.81;;;-7.47;100.00
56671;BME280;42545;50.054;8.306;2022-12-18T06:28:27;101352.47;;;-7.47;100.00
56671;BME280;42545;50.054;8.306;2022-12-18T06:30:58;101356.28;;;-7.44;100.00
56671;BME280;42545;50.054;8.306;2022-12-18T06:33:27;101352.22;;;-7.42;100.00
56671;BME280;42545;50.054;8.306;2022-12-18T06:35:58;101354.63;;;-7.43;100.00
56671;BME280;42545;50.054;8.306;2022-12-18T06:38:25;101356.72;;;-7.48;100.00
56671;BME280;42545;50.054;8.306;2022-12-18T06:40:52;101360.75;;;-7.50;100.00
56671;BME280;42545;50.054;8.306;2022-12-18T06:43:19;101372.66;;;-7.50;100.00
56671;BME280;42545;50.054;8.306;2022-12-18T06:45:45;101377.47;;;-7.54;100.00
56671;BME280;42545;50.054;8.306;2022-12-18T06:48:17;101386.66;;;-7.56;100.00
56671;BME280;42545;50.054;8.306;2022-12-18T06:50:45;101365.97;;;-7.57;100.00
56671;BME280;42545;50.054;8.306;2022-12-18T06:53:12;101370.66;;;-7.53;100.00
56671;BME280;42545;50.054;8.306;2022-12-18T06:55:38;101379.59;;;-7.49;100.00
56671;BME280;42545;50.054;8.306;2022-12-18T06:58:05;101365.13;;;-7.49;100.00
56671;BME280;42545;50.054;8.306;2022-12-18T07:00:31;101367.28;;;-7.45;100.00
56671;BME280;42545;50.054;8.306;2022-12-18T07:02:58;101367.44;;;-7.43;100.00
56671;BME280;42545;50.054;8.306;2022-12-18T07:05:25;101371.84;;;-7.42;100.00
56671;BME280;42545;50.054;8.306;2022-12-18T07:07:53;101371.06;;;-7.41;100.00
56671;BME280;42545;50.054;8.306;2022-12-18T07:10:20;101370.94;;;-7.43;100.00
56671;BME280;42545;50.054;8.306;2022-12-18T07:12:47;101368.94;;;-7.45;100.00
56671;BME280;42545;50.054;8.306;2022-12-18T07:15:13;101370.59;;;-7.46;100.00
56671;BME280;42545;50.054;8.306;2022-12-18T07:17:40;101371.03;;;-7.50;100.00
56671;BME280;42545;50.054;8.306;2022-12-18T07:20:08;101377.59;;;-7.52;100.00
56671;BME280;42545;50.054;8.306;2022-12-18T07:22:35;101382.72;;;-7.52;100.00
56671;BME280;42545;50.054;8.306;2022-12-18T07:25:07;101393.31;;;-7.49;100.00
56671;BME280;42545;50.054;8.306;2022-12-18T07:27:34;101376.16;;;-7.50;100.00
56671;BME280;42545;50.054;8.306;2022-12-18T07:30:00;101371.03;;;-7.50;100.00
56671;BME280;42545;50.054;8.306;2022-12-18T07:32:27;101379.44;;;-7.51;100.00
56671;BME280;42545;50.054;8.306;2022-12-18T07:34:54;101375.81;;;-7.53;100.00
56671;BME280;42545;50.054;8.306;2022-12-18T07:37:20;101373.66;;;-7.57;100.00
56671;BME280;42545;50.054;8.306;2022-12-18T07:39:48;101382.31;;;-7.64;100.00
56671;BME280;42545;50.054;8.306;2022-12-18T07:42:21;101387.50;;;-7.71;100.00
56671;BME280;42545;50.054;8.306;2022-12-18T07:44:57;101381.59;;;-7.86;100.00
56671;BME280;42545;50.054;8.306;2022-12-18T07:47:24;101386.28;;;-7.98;100.00
56671;BME280;42545;50.054;8.306;2022-12-18T07:49:51;101389.69;;;-8.13;100.00
56671;BME280;42545;50.054;8.306;2022-12-18T07:52:18;101400.75;;;-8.21;100.00
56671;BME280;42545;50.054;8.306;2022-12-18T07:54:44;101391.28;;;-8.29;100.00
56671;BME280;42545;50.054;8.306;2022-12-18T07:57:14;101399.91;;;-8.36;100.00
56671;BME280;42545;50.054;8.306;2022-12-18T07:59:42;101404.78;;;-8.46;100.00
56671;BME280;42545;50.054;8.306;2022-12-18T08:02:09;101420.38;;;-8.52;100.00
56671;BME280;42545;50.054;8.306;2022-12-18T08:04:36;101428.25;;;-8.58;100.00
56671;BME280;42545;50.054;8.306;2022-12-18T08:07:04;101433.75;;;-8.62;100.00
56671;BME280;42545;50.054;8.306;2022-12-18T08:09:31;101434.13;;;-8.66;100.00
56671;BME280;42545;50.054;8.306;2022-12-18T08:11:58;101421.56;;;-8.72;100.00
56671;BME280;42545;50.054;8.306;2022-12-18T08:14:25;101419.72;;;-8.73;100.00
56671;BME280;42545;50.054;8.306;2022-12-18T08:16:53;101412.63;;;-8.75;100.00
56671;BME280;42545;50.054;8.306;2022-12-18T08:19:20;101414.50;;;-8.81;100.00
56671;BME280;42545;50.054;8.306;2022-12-18T08:21:47;101416.50;;;-8.86;100.00
56671;BME280;42545;50.054;8.306;2022-12-18T08:24:14;101429.13;;;-8.87;100.00
56671;BME280;42545;50.054;8.306;2022-12-18T08:26:40;101421.84;;;-8.92;100.00
56671;BME280;42545;50.054;8.306;2022-12-18T08:29:08;101424.00;;;-8.87;100.00
56671;BME280;42545;50.054;8.306;2022-12-18T08:31:37;101409.22;;;-8.90;100.00
56671;BME280;42545;50.054;8.306;2022-12-18T08:34:05;101413.59;;;-8.89;100.00
56671;BME280;42545;50.054;8.306;2022-12-18T08:36:32;101414.84;;;-8.85;100.00
56671;BME280;42545;50.054;8.306;2022-12-18T08:38:59;101403.72;;;-8.86;100.00
56671;BME280;42545;50.054;8.306;2022-12-18T08:41:26;101403.88;;;-8.77;100.00
56671;BME280;42545;50.054;8.306;2022-12-18T08:43:53;101401.44;;;-8.68;100.00
56671;BME280;42545;50.054;8.306;2022-12-18T08:46:39;101389.13;;;-8.57;100.00
56671;BME280;42545;50.054;8.306;2022-12-18T08:49:08;101386.53;;;-8.49;100.00
56671;BME280;42545;50.054;8.306;2022-12-18T08:51:36;101390.06;;;-8.40;100.00
56671;BME280;42545;50.054;8.306;2022-12-18T08:54:03;101390.56;;;-8.28;100.00
56671;BME280;42545;50.054;8.306;2022-12-18T08:56:30;101389.19;;;-8.18;100.00
56671;BME280;42545;50.054;8.306;2022-12-18T08:58:59;101392.22;;;-8.06;100.00
56671;BME280;42545;50.054;8.306;2022-12-18T09:01:26;101391.91;;;-7.93;100.00
56671;BME280;42545;50.054;8.306;2022-12-18T09:03:53;101385.00;;;-7.78;100.00
56671;BME280;42545;50.054;8.306;2022-12-18T09:06:22;101395.47;;;-7.61;100.00
56671;BME280;42545;50.054;8.306;2022-12-18T09:08:49;101396.97;;;-7.47;100.00
56671;BME280;42545;50.054;8.306;2022-12-18T09:11:20;101404.50;;;-7.32;100.00
56671;BME280;42545;50.054;8.306;2022-12-18T09:13:47;101408.41;;;-7.20;100.00
56671;BME280;42545;50.054;8.306;2022-12-18T09:16:14;101408.81;;;-7.08;100.00
56671;BME280;42545;50.054;8.306;2022-12-18T09:18:42;101403.22;;;-6.97;100.00
56671;BME280;42545;50.054;8.306;2022-12-18T09:21:10;101412.63;;;-6.89;100.00
56671;BME280;42545;50.054;8.306;2022-12-18T09:23:39;101406.50;;;-6.82;100.00
56671;BME280;42545;50.054;8.306;2022-12-18T09:26:06;101404.41;;;-6.78;100.00
56671;BME280;42545;50.054;8.306;2022-12-18T09:28:33;101418.22;;;-6.68;100.00
56671;BME280;42545;50.054;8.306;2022-12-18T09:31:04;101411.19;;;-6.62;100.00
56671;BME280;42545;50.054;8.306;2022-12-18T09:33:31;101417.47;;;-6.51;100.00
56671;BME280;42545;50.054;8.306;2022-12-18T09:35:57;101416.75;;;-6.42;100.00
56671;BME280;42545;50.054;8.306;2022-12-18T09:38:24;101408.06;;;-6.35;100.00
56671;BME280;42545;50.054;8.306;2022-12-18T09:40:54;101401.72;;;-6.30;100.00
56671;BME280;42545;50.054;8.306;2022-12-18T09:43:26;101395.13;;;-6.19;100.00
56671;BME280;42545;50.054;8.306;2022-12-18T09:45:58;101398.69;;;-6.01;100.00
56671;BME280;42545;50.054;8.306;2022-12-18T09:48:29;101406.03;;;-5.80;100.00
56671;BME280;42545;50.054;8.306;2022-12-18T09:51:00;101413.66;;;-5.55;100.00
56671;BME280;42545;50.054;8.306;2022-12-18T09:53:33;101409.94;;;-5.41;100.00
56671;BME280;42545;50.054;8.306;2022-12-18T09:56:04;101409.94;;;-5.41;100.00
56671;BME280;42545;50.054;8.306;2022-12-18T09:58:34;101409.75;;;-5.51;99.67
56671;BME280;42545;50.054;8.306;2022-12-18T10:01:10;101408.22;;;-5.58;99.26
56671;BME280;42545;50.054;8.306;2022-12-18T10:03:36;101407.94;;;-5.52;99.16
56671;BME280;42545;50.054;8.306;2022-12-18T10:06:08;101413.44;;;-5.32;98.55
56671;BME280;42545;50.054;8.306;2022-12-18T10:08:43;101406.19;;;-5.18;97.63
56671;BME280;42545;50.054;8.306;2022-12-18T10:11:24;101398.81;;;-5.07;97.08
56671;BME280;42545;50.054;8.306;2022-12-18T10:13:57;101396.69;;;-5.11;95.41
56671;BME280;42545;50.054;8.306;2022-12-18T10:16:31;101396.09;;;-4.99;96.96
56671;BME280;42545;50.054;8.306;2022-12-18T10:19:14;101390.66;;;-4.94;96.09
56671;BME280;42545;50.054;8.306;2022-12-18T10:21:50;101386.69;;;-4.99;94.97
56671;BME280;42545;50.054;8.306;2022-12-18T10:24:22;101392.16;;;-4.96;95.47
56671;BME280;42545;50.054;8.306;2022-12-18T10:26:55;101383.97;;;-5.09;93.55
56671;BME280;42545;50.054;8.306;2022-12-18T10:29:27;101382.75;;;-4.95;95.00
56671;BME280;42545;50.054;8.306;2022-12-18T10:31:53;101384.91;;;-5.00;94.41
56671;BME280;42545;50.054;8.306;2022-12-18T10:34:20;101380.34;;;-5.03;94.25
56671;BME280;42545;50.054;8.306;2022-12-18T10:36:47;101381.41;;;-5.09;94.36
56671;BME280;42545;50.054;8.306;2022-12-18T10:39:16;101386.56;;;-5.09;95.13
56671;BME280;42545;50.054;8.306;2022-12-18T10:41:42;101382.59;;;-5.14;94.71
56671;BME280;42545;50.054;8.306;2022-12-18T10:44:16;101389.69;;;-5.21;94.78
56671;BME280;42545;50.054;8.306;2022-12-18T10:46:44;101389.28;;;-5.16;96.06
56671;BME280;42545;50.054;8.306;2022-12-18T10:49:23;101383.81;;;-5.19;95.36
56671;BME280;42545;50.054;8.306;2022-12-18T10:51:51;101379.88;;;-5.16;95.38
56671;BME280;42545;50.054;8.306;2022-12-18T10:54:31;101389.41;;;-5.15;95.19
56671;BME280;42545;50.054;8.306;2022-12-18T10:57:14;101385.75;;;-5.17;96.10
56671;BME280;42545;50.054;8.306;2022-12-18T10:59:51;101382.88;;;-5.11;96.17
56671;BME280;42545;50.054;8.306;2022-12-18T11:02:33;101390.47;;;-4.95;95.60
56671;BME280;42545;50.054;8.306;2022-12-18T11:05:02;101385.78;;;-4.82;95.53
56671;BME280;42545;50.054;8.306;2022-12-18T11:07:47;101386.56;;;-4.74;95.01
56671;BME280;42545;50.054;8.306;2022-12-18T11:10:16;101381.69;;;-4.71;95.34
56671;BME280;42545;50.054;8.306;2022-12-18T11:12:43;101371.09;;;-4.83;93.70
56671;BME280;42545;50.054;8.306;2022-12-18T11:15:16;101375.47;;;-4.73;94.63
56671;BME280;42545;50.054;8.306;2022-12-18T11:17:47;101377.44;;;-4.62;94.77
56671;BME280;42545;50.054;8.306;2022-12-18T11:20:26;101381.84;;;-4.52;93.94
56671;BME280;42545;50.054;8.306;2022-12-18T11:22:58;101380.47;;;-4.66;92.50
56671;BME280;42545;50.054;8.306;2022-12-18T11:25:26;101384.00;;;-4.74;92.82
56671;BME280;42545;50.054;8.306;2022-12-18T11:27:58;101381.72;;;-4.80;93.16
56671;BME280;42545;50.054;8.306;2022-12-18T11:30:28;101381.09;;;-4.77;93.00
56671;BME280;42545;50.054;8.306;2022-12-18T11:33:00;101378.53;;;-4.77;93.72
56671;BME280;42545;50.054;8.306;2022-12-18T11:35:38;101379.72;;;-4.91;93.28
56671;BME280;42545;50.054;8.306;2022-12-18T11:38:12;101368.53;;;-4.92;93.94
56671;BME280;42545;50.054;8.306;2022-12-18T11:40:44;101354.28;;;-4.97;94.48
56671;BME280;42545;50.054;8.306;2022-12-18T11:43:15;101359.88;;;-5.10;94.68
56671;BME280;42545;50.054;8.306;2022-12-18T11:45:49;101368.81;;;-5.24;96.03
56671;BME280;42545;50.054;8.306;2022-12-18T11:48:23;101375.00;;;-5.30;96.45
56671;BME280;42545;50.054;8.306;2022-12-18T11:50:52;101372.72;;;-5.36;97.43
56671;BME280;42545;50.054;8.306;2022-12-18T11:53:20;101378.63;;;-5.37;97.81
56671;BME280;42545;50.054;8.306;2022-12-18T11:55:54;101379.06;;;-5.41;98.10
56671;BME280;42545;50.054;8.306;2022-12-18T11:58:33;101377.69;;;-5.46;98.04
56671;BME280;42545;50.054;8.306;2022-12-18T12:01:11;101377.84;;;-5.45;99.22
56671;BME280;42545;50.054;8.306;2022-12-18T12:03:56;101377.28;;;-5.42;99.10
56671;BME280;42545;50.054;8.306;2022-12-18T12:06:31;101377.41;;;-5.49;98.32
56671;BME280;42545;50.054;8.306;2022-12-18T12:09:11;101368.34;;;-5.46;99.65
56671;BME280;42545;50.054;8.306;2022-12-18T12:11:50;101369.06;;;-5.47;98.99
56671;BME280;42545;50.054;8.306;2022-12-18T12:14:34;101366.66;;;-5.45;99.22
56671;BME280;42545;50.054;8.306;2022-12-18T12:17:16;101358.94;;;-5.45;99.40
56671;BME280;42545;50.054;8.306;2022-12-18T12:19:51;101346.06;;;-5.54;99.05
56671;BME280;42545;50.054;8.306;2022-12-18T12:22:25;101353.47;;;-5.48;99.54
56671;BME280;42545;50.054;8.306;2022-12-18T12:25:07;101359.53;;;-5.48;99.53
56671;BME280;42545;50.054;8.306;2022-12-18T12:27:49;101354.50;;;-5.55;99.22
56671;BME280;42545;50.054;8.306;2022-12-18T12:30:21;101355.75;;;-5.51;99.92
56671;BME280;42545;50.054;8.306;2022-12-18T12:33:03;101350.31;;;-5.54;99.96
56671;BME280;42545;50.054;8.306;2022-12-18T12:35:44;101348.03;;;-5.51;99.90
56671;BME280;42545;50.054;8.306;2022-12-18T12:38:14;101354.84;;;-5.52;99.37
56671;BME280;42545;50.054;8.306;2022-12-18T12:40:46;101345.63;;;-5.58;98.75
56671;BME280;42545;50.054;8.306;2022-12-18T12:43:33;101349.38;;;-5.55;99.60
56671;BME280;42545;50.054;8.306;2022-12-18T12:46:05;101341.66;;;-5.55;100.00
56671;BME280;42545;50.054;8.306;2022-12-18T12:48:37;101338.97;;;-5.56;99.53
56671;BME280;42545;50.054;8.306;2022-12-18T12:51:14;101335.91;;;-5.61;98.81
56671;BME280;42545;50.054;8.306;2022-12-18T12:53:42;101345.75;;;-5.57;99.17
56671;BME280;42545;50.054;8.306;2022-12-18T12:56:13;101348.47;;;-5.55;99.51